Time;durP1;ratioP1;P1;durP2;ratioP2;P2;SDS_P1;SDS_P2;PMS_P1;PMS_P2;Temp;Humidity;BMP_temperature;BMP_pressure;BME280_temperature;BME280_humidity;BME280_pressure;Samples;Min_cycle;Max_cycle;Signal;HPM_P1;HPM_P2
2022/12/08 02:43:38;;;;;;;15.90;7.58;;;;;;;0.62;88.65;98419.17;1800259;79;22944;-49
2022/12/08 02:46:11;;;;;;;12.20;7.22;;;;;;;0.59;88.73;98420.54;1738497;81;21027;-43
2022/12/08 02:48:37;;;;;;;16.02;8.20;;;;;;;0.57;88.56;98423.63;1761607;80;20998;-44
2022/12/08 02:51:04;;;;;;;12.75;6.45;;;;;;;0.61;88.50;98425.22;1742618;81;21492;-44
2022/12/08 02:53:32;;;;;;;16.63;7.47;;;;;;;0.64;88.29;98430.31;1762030;80;20998;-44
2022/12/08 02:56:36;;;;;;;15.98;6.80;;;;;;;0.62;88.20;98433.39;1761786;80;21000;-44
2022/12/08 02:59:45;;;;;;;12.60;6.25;;;;;;;0.57;87.97;98436.10;1761482;81;21003;-44
2022/12/08 03:02:28;;;;;;;10.45;6.47;;;;;;;0.54;88.34;98435.34;1701196;83;21014;-44
2022/12/08 03:05:20;;;;;;;12.85;7.12;;;;;;;0.54;88.15;98438.77;1701198;83;21005;-45
2022/12/08 03:08:17;;;;;;;14.47;7.00;;;;;;;0.54;88.31;98436.18;1701273;83;21514;-44
2022/12/08 03:10:52;;;;;;;;;;;;;;;0.54;88.40;98435.34;1703805;84;21633;-44
2022/12/08 03:13:35;;;;;;;15.90;6.75;;;;;;;0.55;88.19;98431.87;1700968;83;20108;-44
2022/12/08 03:16:05;;;;;;;15.55;7.47;;;;;;;0.57;88.23;98440.44;1695747;83;21001;-44
2022/12/08 03:18:35;;;;;;;12.28;6.50;;;;;;;0.56;87.98;98443.91;1701264;83;20998;-43
2022/12/08 03:21:04;;;;;;;12.88;6.85;;;;;;;0.57;87.95;98436.56;1701203;84;21006;-44
2022/12/08 03:23:31;;;;;;;11.90;6.58;;;;;;;0.61;87.87;98434.73;1701314;84;21030;-43
2022/12/08 03:26:08;;;;;;;11.83;7.15;;;;;;;0.57;87.77;98439.14;1701153;83;20985;-44
2022/12/08 03:28:34;;;;;;;17.62;6.87;;;;;;;0.60;87.63;98441.66;1700190;83;21006;-44
2022/12/08 03:31:04;;;;;;;16.02;7.17;;;;;;;0.59;87.63;98439.95;1701158;84;20982;-44
2022/12/08 03:33:35;;;;;;;14.23;6.65;;;;;;;0.60;87.46;98433.89;1701178;84;21062;-44
2022/12/08 03:36:06;;;;;;;11.65;6.92;;;;;;;0.60;87.49;98433.89;1700281;84;20970;-44
2022/12/08 03:38:44;;;;;;;10.65;6.17;;;;;;;0.64;87.48;98429.02;1746739;81;21046;-44
2022/12/08 03:41:19;;;;;;;11.50;6.33;;;;;;;0.58;87.44;98427.89;1761686;80;21062;-44
2022/12/08 03:43:55;;;;;;;15.60;6.37;;;;;;;0.60;87.41;98428.72;1761770;81;21015;-44
2022/12/08 03:46:25;;;;;;;12.00;6.58;;;;;;;0.63;87.42;98427.77;1761351;81;21064;-42
2022/12/08 03:48:52;;;;;;;12.75;6.60;;;;;;;0.57;87.56;98440.44;1761770;80;20971;-43
2022/12/08 03:51:18;;;;;;;13.40;6.78;;;;;;;0.58;87.40;98453.76;1761838;81;21030;-43
2022/12/08 03:53:44;;;;;;;17.05;6.80;;;;;;;0.62;87.38;98447.63;1761397;81;21045;-43
2022/12/08 03:56:29;;;;;;;15.48;6.75;;;;;;;0.62;87.36;98447.63;1761227;80;21030;-43
2022/12/08 03:58:55;;;;;;;13.08;6.70;;;;;;;0.56;87.19;98445.20;1761183;80;20991;-43
2022/12/08 04:01:22;;;;;;;13.18;6.80;;;;;;;0.65;87.17;98450.11;1761116;80;20995;-43
2022/12/08 04:03:48;;;;;;;12.35;6.22;;;;;;;0.69;87.04;98438.80;1761551;81;20991;-43
2022/12/08 04:06:15;;;;;;;11.15;6.50;;;;;;;0.63;86.90;98442.00;1761172;81;21638;-43
2022/12/08 04:08:41;;;;;;;16.90;6.70;;;;;;;0.62;86.95;98446.76;1761466;80;20988;-43
2022/12/08 04:11:07;;;;;;;10.63;6.47;;;;;;;0.65;87.02;98445.39;1761156;81;20987;-43
2022/12/08 04:13:34;;;;;;;11.78;6.25;;;;;;;0.67;86.98;98447.02;1761175;80;20995;-42
2022/12/08 04:16:01;;;;;;;11.50;7.25;;;;;;;0.65;87.01;98445.39;1742122;81;21031;-42
2022/12/08 04:18:27;;;;;;;13.45;7.22;;;;;;;0.71;87.00;98451.25;1761242;80;20964;-44
2022/12/08 04:20:52;;;;;;;19.10;8.78;;;;;;;0.74;87.22;98449.84;1761217;81;21476;-43
2022/12/08 04:23:18;;;;;;;11.25;7.80;;;;;;;0.81;87.06;98452.27;1761229;80;20999;-43
2022/12/08 04:25:44;;;;;;;16.17;7.15;;;;;;;0.71;87.13;98447.36;1761136;80;21014;-42
2022/12/08 04:28:10;;;;;;;15.13;8.05;;;;;;;0.70;87.23;98445.66;1761139;80;20965;-43
2022/12/08 04:30:35;;;;;;;15.28;8.20;;;;;;;0.73;87.05;98448.62;1761131;80;20983;-43
2022/12/08 04:33:01;;;;;;;21.50;8.73;;;;;;;0.75;87.05;98453.30;1761140;81;20995;-42
2022/12/08 04:35:27;;;;;;;16.27;8.28;;;;;;;0.79;86.96;98454.06;1761118;81;21037;-43
2022/12/08 04:37:53;;;;;;;16.32;8.20;;;;;;;0.76;86.76;98451.09;1761122;80;21136;-43
2022/12/08 04:40:19;;;;;;;18.10;9.33;;;;;;;0.73;86.81;98457.22;1761154;81;20993;-43
2022/12/08 04:42:45;;;;;;;16.77;8.65;;;;;;;0.68;86.69;98455.66;1761136;81;21082;-43
2022/12/08 04:45:11;;;;;;;14.43;7.60;;;;;;;0.69;86.74;98458.20;1761351;81;20991;-43
2022/12/08 04:47:37;;;;;;;11.97;7.78;;;;;;;0.66;86.68;98465.21;1761419;81;21050;-43
2022/12/08 04:50:04;;;;;;;14.47;7.40;;;;;;;0.53;86.61;98459.53;1761493;81;21812;-43
2022/12/08 04:52:31;;;;;;;17.73;7.10;;;;;;;0.54;86.87;98454.74;1761524;81;20971;-43
2022/12/08 04:54:56;;;;;;;14.75;7.45;;;;;;;0.52;86.79;98453.94;1761418;80;20983;-43
2022/12/08 04:57:22;;;;;;;17.37;7.70;;;;;;;0.52;86.77;98448.31;1761428;81;20967;-43
2022/12/08 04:59:48;;;;;;;17.00;7.50;;;;;;;0.55;86.90;98450.83;1761486;81;21054;-43
2022/12/08 05:02:14;;;;;;;12.28;6.70;;;;;;;0.58;86.73;98460.23;1761358;81;21047;-44
2022/12/08 05:04:40;;;;;;;11.15;6.15;;;;;;;0.56;86.64;98464.60;1761368;81;21042;-43
2022/12/08 05:07:05;;;;;;;13.45;6.60;;;;;;;0.58;86.54;98457.64;1761387;80;20991;-43
2022/12/08 05:09:31;;;;;;;13.20;6.97;;;;;;;0.57;86.51;98450.33;1761377;81;21018;-43
2022/12/08 05:11:57;;;;;;;12.28;6.53;;;;;;;0.53;86.30;98446.60;1761387;80;21027;-43
2022/12/08 05:14:23;;;;;;;20.80;7.92;;;;;;;0.53;86.30;98446.60;1761474;81;21050;-43
2022/12/08 05:16:48;;;;;;;10.50;7.50;;;;;;;0.59;86.83;98442.53;1761459;80;20960;-43
2022/12/08 05:19:15;;;;;;;15.05;7.05;;;;;;;0.60;86.48;98449.41;1761466;81;21468;-43
2022/12/08 05:21:42;;;;;;;13.00;7.28;;;;;;;0.59;86.50;98449.00;1761476;81;21465;-43
2022/12/08 05:24:08;;;;;;;12.30;7.85;;;;;;;0.63;86.52;98451.89;1761533;81;21042;-43
2022/12/08 05:26:34;;;;;;;13.78;7.10;;;;;;;0.59;86.41;98449.00;1761401;81;20982;-44
2022/12/08 05:29:00;;;;;;;12.78;7.12;;;;;;;0.58;86.55;98449.88;1761418;80;20983;-43
2022/12/08 05:31:26;;;;;;;16.97;8.13;;;;;;;0.55;86.65;98448.69;1761408;81;21030;-43
2022/12/08 05:33:52;;;;;;;13.03;7.83;;;;;;;0.59;86.68;98447.70;1761473;81;20987;-43
2022/12/08 05:36:19;;;;;;;14.45;8.08;;;;;;;0.58;86.76;98449.88;1761427;81;21484;-43
2022/12/08 05:38:45;;;;;;;12.07;7.47;;;;;;;0.62;86.75;98454.52;1761472;81;21030;-43
2022/12/08 05:41:16;;;;;;;16.23;7.07;;;;;;;0.61;86.87;98454.97;1761575;80;21030;-43
2022/12/08 05:43:42;;;;;;;16.52;8.05;;;;;;;0.60;86.82;98455.02;1761277;80;21775;-43
2022/12/08 05:46:08;;;;;;;13.48;7.95;;;;;;;0.63;86.76;98457.07;1761484;80;20970;-43
2022/12/08 05:48:34;;;;;;;18.55;8.28;;;;;;;0.62;86.93;98455.81;1761355;81;21491;-44
2022/12/08 05:51:00;;;;;;;14.53;7.65;;;;;;;0.61;86.88;98456.27;1761617;81;21007;-43
2022/12/08 05:53:26;;;;;;;17.62;8.58;;;;;;;0.62;86.83;98462.28;1761368;81;21034;-44
2022/12/08 05:55:52;;;;;;;13.18;8.48;;;;;;;0.61;87.01;98461.45;1761432;81;20991;-44
2022/12/08 05:58:21;;;;;;;14.85;8.05;;;;;;;0.64;86.95;98463.08;1761384;81;20983;-43
2022/12/08 06:00:49;;;;;;;14.38;7.53;;;;;;;0.68;87.27;98464.72;1761339;81;21532;-44
2022/12/08 06:03:17;;;;;;;15.28;8.03;;;;;;;0.68;87.26;98473.31;1761327;81;20960;-43
2022/12/08 06:05:45;;;;;;;18.60;8.30;;;;;;;0.70;87.22;98474.12;1761373;81;21448;-43
2022/12/08 06:08:12;;;;;;;17.70;8.00;;;;;;;0.72;87.30;98473.62;1761353;81;21022;-43
2022/12/08 06:10:41;;;;;;;12.73;7.85;;;;;;;0.78;87.28;98476.48;1761413;80;20995;-43
2022/12/08 06:13:07;;;;;;;19.73;9.08;;;;;;;0.78;87.44;98470.47;1760502;81;20987;-43
2022/12/08 06:15:37;;;;;;;15.50;8.95;;;;;;;0.88;87.57;98476.63;1761432;81;21854;-43
2022/12/08 06:18:04;;;;;;;22.37;9.78;;;;;;;0.93;87.44;98470.03;1760489;81;21481;-43
2022/12/08 06:20:30;;;;;;;24.32;9.48;;;;;;;1.00;87.41;98468.97;1761514;81;21026;-44
2022/12/08 06:22:56;;;;;;;28.52;10.95;;;;;;;1.03;87.33;98473.19;1761273;80;20995;-44
2022/12/08 06:25:22;;;;;;;20.68;10.40;;;;;;;1.07;87.25;98478.21;1761344;81;21007;-43
2022/12/08 06:27:48;;;;;;;22.02;10.48;;;;;;;1.08;87.25;98473.45;1761400;81;21550;-43
2022/12/08 06:30:15;;;;;;;20.55;10.75;;;;;;;1.11;87.16;98480.27;1761383;80;21422;-43
2022/12/08 06:32:41;;;;;;;26.42;12.28;;;;;;;1.11;87.30;98478.97;1761497;81;20991;-44
2022/12/08 06:35:08;;;;;;;26.97;12.80;;;;;;;1.17;87.39;98483.98;1761356;81;21038;-43
2022/12/08 06:37:34;;;;;;;27.57;13.70;;;;;;;1.18;87.45;98480.94;1761522;80;21483;-43
2022/12/08 06:40:10;;;;;;;34.25;14.85;;;;;;;1.18;87.49;98478.34;1761344;81;20987;-43
2022/12/08 06:42:45;;;;;;;30.10;14.53;;;;;;;1.19;87.48;98483.94;1758238;80;21028;-43
2022/12/08 06:45:16;;;;;;;24.85;13.55;;;;;;;1.23;87.58;98481.66;1748024;81;20983;-43
2022/12/08 06:47:43;;;;;;;27.20;13.40;;;;;;;1.20;87.78;98483.03;1748015;81;21476;-43
2022/12/08 06:50:10;;;;;;;25.15;12.98;;;;;;;1.21;87.99;98488.17;1747913;81;21463;-43
2022/12/08 06:52:36;;;;;;;;;;;;;;;1.18;87.64;98492.59;1750585;82;20979;-43
2022/12/08 06:55:02;;;;;;;24.92;11.85;;;;;;;1.15;87.87;98488.37;1747978;81;20184;-43
2022/12/08 06:57:28;;;;;;;27.50;13.03;;;;;;;1.14;87.99;98495.72;1748016;81;21501;-43
2022/12/08 06:59:53;;;;;;;30.15;13.93;;;;;;;1.17;88.07;98507.30;1747987;81;21023;-43
2022/12/08 07:02:19;;;;;;;30.52;14.90;;;;;;;1.21;88.03;98504.16;1747978;81;21027;-43
2022/12/08 07:04:45;;;;;;;33.73;15.13;;;;;;;1.20;88.33;98501.16;1747877;81;21043;-43
2022/12/08 07:07:10;;;;;;;27.45;13.72;;;;;;;1.18;88.20;98490.84;1747958;81;20976;-43
2022/12/08 07:09:36;;;;;;;36.42;14.68;;;;;;;1.18;88.12;98488.25;1747983;81;20980;-43
2022/12/08 07:12:04;;;;;;;32.48;16.17;;;;;;;1.19;88.26;98488.66;1747994;81;20972;-43
2022/12/08 07:14:29;;;;;;;39.42;16.90;;;;;;;1.17;88.22;98489.63;1748139;81;20999;-43
2022/12/08 07:16:55;;;;;;;36.58;17.95;;;;;;;1.17;88.33;98492.21;1747964;82;20988;-43
2022/12/08 07:19:21;;;;;;;31.62;16.15;;;;;;;1.13;88.52;98491.00;1747952;81;20964;-44
2022/12/08 07:21:47;;;;;;;32.83;16.95;;;;;;;1.11;88.81;98492.78;1748006;81;21035;-43
2022/12/08 07:24:13;;;;;;;41.53;18.32;;;;;;;1.12;88.89;98495.77;1748003;81;21018;-43
2022/12/08 07:26:40;;;;;;;41.42;20.52;;;;;;;1.12;89.11;98498.80;1747982;81;21155;-44
2022/12/08 07:29:06;;;;;;;35.00;19.25;;;;;;;1.13;89.28;98492.75;1748207;81;20995;-43
2022/12/08 07:31:32;;;;;;;46.60;19.40;;;;;;;1.20;89.55;98492.09;1748250;81;21584;-43
2022/12/08 07:33:58;;;;;;;36.15;16.62;;;;;;;1.20;89.55;98492.09;1748209;81;21070;-43
2022/12/08 07:36:24;;;;;;;40.90;18.35;;;;;;;1.12;89.81;98493.63;1748028;82;20988;-43
2022/12/08 07:38:52;;;;;;;33.65;17.45;;;;;;;1.10;90.26;98492.37;1749801;80;21483;-43
2022/12/08 07:41:22;;;;;;;37.40;19.30;;;;;;;1.17;90.26;98492.21;1753398;80;20975;-43
2022/12/08 07:43:48;;;;;;;39.85;19.50;;;;;;;1.24;90.22;98495.02;1763558;78;20968;-43
2022/12/08 07:46:18;;;;;;;40.95;19.90;;;;;;;1.29;90.30;98487.93;1749311;80;21556;-46
2022/12/08 07:48:45;;;;;;;41.50;20.08;;;;;;;1.39;90.00;98490.65;1767124;80;21447;-43
2022/12/08 07:51:13;;;;;;;54.40;21.52;;;;;;;1.41;90.03;98491.90;1749471;81;21462;-44
2022/12/08 07:53:41;;;;;;;46.23;20.80;;;;;;;1.41;90.11;98491.45;1754140;80;21019;-43
2022/12/08 07:56:12;;;;;;;43.48;19.42;;;;;;;1.50;89.98;98490.31;1768242;80;20961;-44
2022/12/08 07:58:38;;;;;;;41.77;18.62;;;;;;;1.57;90.08;98486.64;1761235;80;21012;-45
2022/12/08 08:01:05;;;;;;;40.75;18.82;;;;;;;1.65;90.08;98488.98;1766768;80;21472;-43
2022/12/08 08:03:31;;;;;;;43.93;18.50;;;;;;;1.62;90.00;98486.05;1752272;81;21011;-43
2022/12/08 08:06:04;;;;;;;40.45;19.20;;;;;;;1.62;90.22;98483.87;1751573;80;20972;-42
2022/12/08 08:08:30;;;;;;;36.00;18.15;;;;;;;1.65;90.29;98484.63;1773066;80;20952;-43
2022/12/08 08:10:57;;;;;;;35.30;18.23;;;;;;;1.75;90.24;98490.39;1762688;80;20976;-43
2022/12/08 08:13:23;;;;;;;36.98;17.75;;;;;;;1.76;90.08;98489.47;1758217;80;21027;-42
2022/12/08 08:15:48;;;;;;;40.33;17.37;;;;;;;1.73;90.44;98486.55;1760543;80;21527;-41
2022/12/08 08:18:14;;;;;;;41.83;17.52;;;;;;;1.81;90.53;98491.93;1751667;80;20960;-43
2022/12/08 08:20:40;;;;;;;36.10;16.57;;;;;;;1.75;90.64;98498.16;1777029;80;21449;-42
2022/12/08 08:23:06;;;;;;;27.50;14.45;;;;;;;1.88;90.44;98498.61;1760150;80;21440;-43
2022/12/08 08:25:31;;;;;;;29.87;16.00;;;;;;;1.87;90.38;98502.09;1763266;80;21446;-43
2022/12/08 08:27:57;;;;;;;30.40;15.25;;;;;;;1.89;90.17;98506.34;1763554;80;21623;-43
2022/12/08 08:30:23;;;;;;;28.47;14.43;;;;;;;1.96;90.42;98507.43;1776267;80;21502;-43
2022/12/08 08:32:49;;;;;;;27.82;14.93;;;;;;;2.04;90.37;98502.39;1775847;80;21101;-43
2022/12/08 08:35:16;;;;;;;24.40;13.78;;;;;;;2.09;90.17;98504.81;1768324;80;20953;-43
2022/12/08 08:37:42;;;;;;;24.75;14.35;;;;;;;2.15;89.96;98503.76;1767989;80;20999;-43
2022/12/08 08:40:08;;;;;;;30.12;18.25;;;;;;;2.14;89.87;98510.70;1758021;80;20968;-43
2022/12/08 08:42:34;;;;;;;25.02;14.73;;;;;;;2.22;89.76;98514.33;1769349;80;20967;-44
2022/12/08 08:45:00;;;;;;;26.30;14.68;;;;;;;2.27;89.56;98509.84;1778072;80;20983;-44
2022/12/08 08:47:25;;;;;;;30.75;15.80;;;;;;;2.33;89.62;98508.77;1771264;80;21009;-44
2022/12/08 08:49:51;;;;;;;36.98;15.40;;;;;;;2.33;89.52;98507.05;1777057;80;20971;-43
2022/12/08 08:52:17;;;;;;;30.50;16.15;;;;;;;2.43;89.29;98499.78;1760873;80;20991;-43
2022/12/08 08:54:43;;;;;;;32.73;16.80;;;;;;;2.49;89.10;98499.55;1771418;80;20936;-43
2022/12/08 08:57:08;;;;;;;39.90;20.20;;;;;;;2.57;89.13;98498.84;1759046;80;21461;-43
2022/12/08 08:59:34;;;;;;;34.70;18.50;;;;;;;2.59;88.80;98498.80;1772953;80;21516;-43
2022/12/08 09:02:00;;;;;;;37.83;18.95;;;;;;;2.60;88.61;98497.88;1759765;80;20983;-43
2022/12/08 09:04:26;;;;;;;27.55;16.57;;;;;;;2.63;88.32;98497.78;1779710;80;20956;-43
2022/12/08 09:06:51;;;;;;;27.17;15.98;;;;;;;2.66;88.32;98495.09;1762769;80;21003;-43
2022/12/08 09:09:17;;;;;;;29.18;16.50;;;;;;;2.63;88.12;98493.42;1761392;80;20951;-43
2022/12/08 09:11:43;;;;;;;35.88;17.60;;;;;;;2.76;88.03;98497.73;1779169;80;20979;-44
2022/12/08 09:14:16;;;;;;;32.70;16.73;;;;;;;2.82;87.57;98490.16;1772002;80;20979;-43
2022/12/08 09:16:42;;;;;;;33.75;16.90;;;;;;;2.79;87.24;98494.19;1748145;81;21019;-43
2022/12/08 09:19:08;;;;;;;35.83;17.52;;;;;;;2.89;87.17;98496.82;1764787;80;20940;-43
2022/12/08 09:21:34;;;;;;;34.88;18.15;;;;;;;2.94;87.10;98494.07;1757283;79;20991;-43
2022/12/08 09:24:00;;;;;;;42.10;18.95;;;;;;;2.99;87.03;98489.56;1773988;80;20959;-44
2022/12/08 09:26:27;;;;;;;44.15;20.80;;;;;;;3.04;86.83;98480.69;1759893;80;20971;-43
2022/12/08 09:28:54;;;;;;;36.83;19.07;;;;;;;3.06;86.67;98491.02;1778148;80;21006;-45
2022/12/08 09:31:22;;;;;;;30.88;16.65;;;;;;;3.06;86.31;98485.37;1765493;79;21019;-43
2022/12/08 09:33:50;;;;;;;31.80;15.68;;;;;;;3.11;86.32;98477.41;1767672;80;21030;-43
2022/12/08 09:36:18;;;;;;;29.92;17.55;;;;;;;3.16;86.24;98470.27;1763742;80;20971;-44
2022/12/08 09:38:45;;;;;;;26.15;15.23;;;;;;;3.15;86.20;98475.55;1764410;80;21022;-43
2022/12/08 09:41:19;;;;;;;25.35;14.87;;;;;;;3.15;85.95;98470.35;1748536;80;20967;-42
2022/12/08 09:44:21;;;;;;;26.05;14.85;;;;;;;3.17;85.69;98468.53;1757000;80;21483;-43
2022/12/08 09:46:50;;;;;;;26.48;14.03;;;;;;;3.15;85.17;98466.45;1772755;80;21429;-43
2022/12/08 09:49:21;;;;;;;29.90;14.90;;;;;;;3.22;85.55;98465.28;1764797;80;20975;-43
2022/12/08 09:51:47;;;;;;;25.57;14.15;;;;;;;3.24;85.33;98462.20;1768299;80;20959;-43
2022/12/08 09:54:27;;;;;;;22.50;14.55;;;;;;;3.31;85.14;98464.95;1761105;80;20969;-43
2022/12/08 09:56:55;;;;;;;28.47;13.68;;;;;;;3.35;84.55;98460.02;1756799;80;20967;-44
2022/12/08 09:59:33;;;;;;;33.28;15.18;;;;;;;3.27;84.17;98452.96;1753901;80;21003;-43
2022/12/08 10:02:00;;;;;;;26.70;14.70;;;;;;;3.19;84.09;98451.13;1761079;80;21492;-43
2022/12/08 10:04:37;;;;;;;29.20;15.90;;;;;;;3.17;84.41;98452.48;1750576;80;20971;-43
2022/12/08 10:07:17;;;;;;;30.52;15.60;;;;;;;3.11;84.31;98451.44;1756270;80;20976;-43
2022/12/08 10:09:59;;;;;;;29.45;16.42;;;;;;;3.15;84.24;98450.41;1766157;80;20944;-43
2022/12/08 10:12:59;;;;;;;27.40;16.42;;;;;;;3.19;84.06;98447.23;1767645;80;20995;-43
2022/12/08 10:15:42;;;;;;;30.08;16.02;;;;;;;3.10;84.18;98446.30;1762292;80;20944;-43
2022/12/08 10:18:16;;;;;;;28.65;18.32;;;;;;;3.03;84.19;98438.72;1778809;80;21519;-42
2022/12/08 10:20:44;;;;;;;26.37;16.70;;;;;;;3.08;84.46;98431.59;1778404;80;21516;-42
2022/12/08 10:23:27;;;;;;;27.02;16.62;;;;;;;2.95;84.17;98432.98;1778800;80;21014;-43
2022/12/08 10:26:06;;;;;;;30.20;16.87;;;;;;;3.11;84.42;98431.95;1778552;80;21058;-44
2022/12/08 10:28:33;;;;;;;30.62;16.67;;;;;;;3.13;84.12;98431.86;1778038;80;21045;-43
2022/12/08 10:30:59;;;;;;;41.00;17.80;;;;;;;3.17;84.15;98420.02;1773435;80;20931;-43
2022/12/08 10:33:27;;;;;;;32.30;15.80;;;;;;;3.25;84.40;98424.90;1769194;80;20967;-43
2022/12/08 10:36:01;;;;;;;31.62;16.67;;;;;;;3.23;84.10;98424.12;1777421;80;21986;-44
2022/12/08 10:38:36;;;;;;;31.60;17.60;;;;;;;3.30;84.23;98414.34;1761036;80;21000;-43
2022/12/08 10:41:16;;;;;;;29.80;18.48;;;;;;;3.36;84.00;98421.41;1769170;80;20963;-45
2022/12/08 10:43:52;;;;;;;31.17;17.73;;;;;;;3.41;83.88;98414.28;1749535;81;21028;-43
2022/12/08 10:46:24;;;;;;;35.60;18.53;;;;;;;3.43;83.55;98417.66;1760836;81;21026;-45
2022/12/08 10:49:07;;;;;;;28.67;17.42;;;;;;;3.53;84.10;98418.16;1780237;80;20955;-44
2022/12/08 10:51:37;;;;;;;28.98;17.30;;;;;;;3.51;83.52;98417.81;1770208;80;20983;-45
2022/12/08 10:54:05;;;;;;;30.72;16.93;;;;;;;3.56;83.33;98419.31;1764466;80;21053;-44
2022/12/08 10:56:31;;;;;;;;;;;;;;;3.64;83.38;98421.16;1775276;80;20991;-44
2022/12/08 10:59:14;;;;;;;27.07;15.68;;;;;;;3.63;82.52;98419.91;1770090;80;20100;-44
2022/12/08 11:01:43;;;;;;;29.48;14.43;;;;;;;3.72;82.63;98416.09;1741400;81;20971;-43
2022/12/08 11:04:19;;;;;;;32.50;16.80;;;;;;;3.77;81.97;98416.76;1774596;80;20948;-44
2022/12/08 11:06:48;;;;;;;35.30;17.80;;;;;;;3.81;82.29;98409.21;1767312;80;20986;-44
2022/12/08 11:09:26;;;;;;;24.87;14.00;;;;;;;3.80;82.13;98412.27;1764644;80;21398;-45
2022/12/08 11:11:58;;;;;;;26.35;15.50;;;;;;;3.79;81.86;98410.57;1775231;80;20983;-44
2022/12/08 11:14:44;;;;;;;26.87;15.28;;;;;;;3.85;82.29;98405.56;1776552;80;21469;-44
2022/12/08 11:17:15;;;;;;;26.62;15.28;;;;;;;3.81;82.08;98402.70;1764396;80;20971;-44
2022/12/08 11:19:48;;;;;;;25.17;15.88;;;;;;;3.76;81.91;98402.89;1764328;80;20959;-43
2022/12/08 11:22:32;;;;;;;30.70;16.60;;;;;;;3.74;82.54;98391.70;1766040;80;21006;-44
2022/12/08 11:25:09;;;;;;;26.05;16.00;;;;;;;3.77;82.72;98396.79;1777891;80;20975;-45
2022/12/08 11:27:43;;;;;;;29.07;16.25;;;;;;;3.80;82.79;98392.77;1768172;80;21006;-45
2022/12/08 11:30:30;;;;;;;25.37;15.30;;;;;;;3.90;83.10;98391.08;1780401;80;21405;-44
2022/12/08 11:33:04;;;;;;;26.15;15.72;;;;;;;3.91;82.89;98400.55;1783376;80;20955;-44
2022/12/08 11:35:35;;;;;;;25.30;15.80;;;;;;;3.97;83.18;98394.64;1763256;81;20952;-43
2022/12/08 11:38:13;;;;;;;28.27;14.90;;;;;;;3.95;83.05;98393.03;1762894;81;21023;-44
2022/12/08 11:40:42;;;;;;;25.92;15.25;;;;;;;3.99;82.75;98392.81;1773392;80;20951;-44
2022/12/08 11:43:32;;;;;;;34.00;15.68;;;;;;;4.03;83.01;98393.53;1782172;80;20996;-43
2022/12/08 11:46:00;;;;;;;36.88;16.52;;;;;;;4.00;82.53;98386.72;1766971;80;21000;-44
2022/12/08 11:48:59;;;;;;;31.20;15.32;;;;;;;4.01;82.24;98384.95;1771783;80;21011;-43
2022/12/08 11:51:45;;;;;;;32.65;16.35;;;;;;;3.97;82.07;98382.94;1774239;80;20955;-43
2022/12/08 11:54:36;;;;;;;26.90;16.65;;;;;;;3.98;82.27;98379.88;1767363;80;21485;-43
2022/12/08 11:57:06;;;;;;;29.40;16.75;;;;;;;3.97;82.62;98378.20;1766527;80;20995;-42
2022/12/08 11:59:48;;;;;;;31.45;19.20;;;;;;;4.00;82.44;98374.14;1770892;80;21492;-42
2022/12/08 12:02:28;;;;;;;23.22;14.38;;;;;;;4.03;82.62;98377.92;1763005;80;20975;-43
2022/12/08 12:05:17;;;;;;;30.43;14.68;;;;;;;4.01;82.30;98377.15;1770072;80;21015;-45
2022/12/08 12:08:18;;;;;;;25.60;14.13;;;;;;;4.10;82.53;98376.75;1759070;80;20978;-44
2022/12/08 12:10:52;;;;;;;29.85;13.75;;;;;;;4.02;82.28;98369.72;1772750;80;20991;-43
2022/12/08 12:13:47;;;;;;;27.93;14.53;;;;;;;4.00;82.18;98369.81;1768589;81;20951;-42
2022/12/08 12:16:43;;;;;;;22.67;12.85;;;;;;;4.06;82.22;98375.20;1764109;80;20928;-43
2022/12/08 12:19:16;;;;;;;23.57;11.63;;;;;;;4.07;81.99;98371.67;1763640;80;21464;-44
2022/12/08 12:21:49;;;;;;;21.05;10.98;;;;;;;4.10;81.99;98368.94;1768234;80;20956;-43
2022/12/08 12:24:23;;;;;;;20.62;11.03;;;;;;;4.06;81.58;98368.69;1775957;80;20995;-43
2022/12/08 12:27:00;;;;;;;17.05;10.20;;;;;;;4.10;82.07;98366.80;1769009;80;21039;-42
2022/12/08 12:29:31;;;;;;;16.57;10.20;;;;;;;4.17;81.92;98368.23;1761073;80;21007;-43
2022/12/08 12:32:03;;;;;;;18.30;10.80;;;;;;;4.16;81.36;98360.85;1782363;79;20970;-43
2022/12/08 12:34:34;;;;;;;21.50;11.05;;;;;;;4.26;81.49;98365.65;1763602;80;20999;-43
2022/12/08 12:37:09;;;;;;;18.62;9.93;;;;;;;4.27;80.88;98362.98;1722564;82;20976;-45
2022/12/08 12:40:04;;;;;;;18.67;9.50;;;;;;;4.26;79.80;98361.74;1730587;82;21027;-44
2022/12/08 12:42:54;;;;;;;19.42;9.80;;;;;;;4.37;80.21;98349.13;1724154;82;21017;-45
2022/12/08 12:45:25;;;;;;;18.87;9.60;;;;;;;4.50;80.13;98346.34;1720753;81;21062;-43
2022/12/08 12:47:59;;;;;;;15.45;9.65;;;;;;;4.35;78.97;98351.79;1735462;82;21453;-43
2022/12/08 12:50:44;;;;;;;16.30;9.83;;;;;;;4.33;79.10;98348.41;1697443;83;21024;-43
2022/12/08 12:53:23;;;;;;;20.55;10.95;;;;;;;4.39;79.85;98345.98;1701381;84;21066;-43
2022/12/08 12:56:02;;;;;;;15.50;10.15;;;;;;;4.34;79.09;98342.27;1722002;83;21020;-44
2022/12/08 12:58:35;;;;;;;15.78;9.43;;;;;;;4.25;79.20;98345.30;1725956;83;20975;-43
2022/12/08 13:01:21;;;;;;;18.92;9.85;;;;;;;4.31;79.70;98337.66;1720129;83;21003;-43
2022/12/08 13:03:53;;;;;;;20.08;11.12;;;;;;;4.26;79.31;98337.02;1722340;82;21216;-43
2022/12/08 13:06:28;;;;;;;27.62;12.82;;;;;;;4.29;79.96;98334.30;1731285;82;21968;-41
2022/12/08 13:08:55;;;;;;;17.40;11.25;;;;;;;4.31;79.83;98333.76;1764479;80;20983;-43
2022/12/08 13:11:22;;;;;;;24.67;12.53;;;;;;;4.28;79.46;98335.22;1749287;80;20984;-42
2022/12/08 13:13:57;;;;;;;;;;;;;;;4.26;79.62;98331.81;1770536;80;21673;-43
2022/12/08 13:16:25;;;;;;;17.25;11.00;;;;;;;4.20;79.51;98326.44;1758362;80;20117;-42
2022/12/08 13:18:58;;;;;;;21.33;11.90;;;;;;;4.24;79.87;98329.31;1770592;80;20963;-42
2022/12/08 13:21:31;;;;;;;21.07;12.23;;;;;;;4.21;79.95;98326.38;1748068;80;20952;-42
2022/12/08 13:24:18;;;;;;;20.62;12.63;;;;;;;4.21;79.84;98330.73;1775289;80;21019;-43
2022/12/08 13:27:07;;;;;;;23.15;13.25;;;;;;;4.19;80.05;98336.47;1755776;80;20995;-43
2022/12/08 13:29:36;;;;;;;21.15;11.38;;;;;;;4.16;79.93;98332.23;1746418;82;20988;-43
2022/12/08 13:32:05;;;;;;;21.95;11.20;;;;;;;4.15;80.09;98331.03;1742111;82;21013;-42
2022/12/08 13:34:50;;;;;;;25.35;12.25;;;;;;;4.17;80.23;98324.83;1746384;81;21016;-43
2022/12/08 13:37:42;;;;;;;20.35;12.00;;;;;;;4.16;80.55;98327.03;1746012;81;21476;-42
2022/12/08 13:40:15;;;;;;;20.48;12.43;;;;;;;4.18;80.44;98326.53;1745714;82;20949;-43
2022/12/08 13:42:47;;;;;;;23.98;14.55;;;;;;;4.18;80.30;98322.63;1742992;81;21035;-42
2022/12/08 13:45:18;;;;;;;23.25;14.38;;;;;;;4.11;80.15;98333.35;1744881;82;21019;-43
2022/12/08 13:48:04;;;;;;;20.95;13.38;;;;;;;4.09;80.79;98332.11;1723770;82;21463;-44
2022/12/08 13:50:41;;;;;;;25.17;14.13;;;;;;;4.07;80.69;98332.64;1745869;82;20975;-43
2022/12/08 13:53:21;;;;;;;22.07;14.70;;;;;;;4.06;80.39;98336.17;1746425;82;20979;-43
2022/12/08 13:55:57;;;;;;;24.80;14.13;;;;;;;3.97;80.54;98328.31;1717229;82;20972;-42
2022/12/08 13:58:30;;;;;;;23.75;13.40;;;;;;;4.01;80.94;98332.92;1746230;81;20999;-42
2022/12/08 14:01:21;;;;;;;32.38;15.10;;;;;;;3.96;80.96;98333.11;1747296;82;21448;-42
2022/12/08 14:03:57;;;;;;;21.48;13.70;;;;;;;4.01;81.35;98337.66;1746998;82;20955;-41
2022/12/08 14:06:31;;;;;;;24.17;14.27;;;;;;;3.99;81.44;98338.66;1747447;82;20990;-43
2022/12/08 14:09:01;;;;;;;26.97;14.93;;;;;;;3.94;81.59;98336.23;1747581;81;21006;-43
2022/12/08 14:11:37;;;;;;;24.52;13.72;;;;;;;3.91;81.39;98337.70;1746151;82;20967;-43
2022/12/08 14:14:15;;;;;;;24.43;14.07;;;;;;;3.91;81.61;98339.43;1742580;81;21014;-43
2022/12/08 14:16:54;;;;;;;25.43;14.70;;;;;;;3.93;81.56;98345.41;1746330;82;21007;-42
2022/12/08 14:19:24;;;;;;;25.20;15.32;;;;;;;3.89;81.74;98345.16;1747143;82;21202;-43
2022/12/08 14:22:11;;;;;;;34.73;14.80;;;;;;;3.91;81.94;98344.63;1746222;82;21007;-42
2022/12/08 14:24:37;;;;;;;35.25;20.30;;;;;;;3.98;82.14;98348.66;1746651;82;21015;-42
2022/12/08 14:27:07;;;;;;;38.80;20.12;;;;;;;3.99;81.95;98348.59;1747220;81;21030;-41
2022/12/08 14:29:51;;;;;;;33.73;17.70;;;;;;;4.00;82.32;98349.00;1746445;82;21019;-43
2022/12/08 14:32:31;;;;;;;36.50;20.00;;;;;;;4.07;82.17;98344.81;1745913;81;21015;-42